sensor_id;sensor_type;location;lat;lon;timestamp;temperature;humidity
5802;DHT22;2927;49.366;8.530;2023-07-24T00:00:19;19.90;99.90
5802;DHT22;2927;49.366;8.530;2023-07-24T00:02:45;19.90;99.90
5802;DHT22;2927;49.366;8.530;2023-07-24T00:05:10;19.80;99.90
5802;DHT22;2927;49.366;8.530;2023-07-24T00:07:36;19.80;99.90
5802;DHT22;2927;49.366;8.530;2023-07-24T00:10:02;19.70;99.90
5802;DHT22;2927;49.366;8.530;2023-07-24T00:12:28;19.70;99.90
5802;DHT22;2927;49.366;8.530;2023-07-24T00:14:54;19.60;99.90
5802;DHT22;2927;49.366;8.530;2023-07-24T00:17:19;19.50;99.90
5802;DHT22;2927;49.366;8.530;2023-07-24T00:19:45;19.60;99.90
5802;DHT22;2927;49.366;8.530;2023-07-24T00:22:10;19.60;99.90
5802;DHT22;2927;49.366;8.530;2023-07-24T00:24:36;19.50;99.90
5802;DHT22;2927;49.366;8.530;2023-07-24T00:27:01;19.50;99.90
5802;DHT22;2927;49.366;8.530;2023-07-24T00:29:28;19.40;1.00
5802;DHT22;2927;49.366;8.530;2023-07-24T00:31:53;19.30;1.00
5802;DHT22;2927;49.366;8.530;2023-07-24T00:34:19;19.30;1.00
5802;DHT22;2927;49.366;8.530;2023-07-24T00:36:44;19.30;1.00
5802;DHT22;2927;49.366;8.530;2023-07-24T00:39:10;19.30;1.00
5802;DHT22;2927;49.366;8.530;2023-07-24T00:41:35;19.30;1.00
5802;DHT22;2927;49.366;8.530;2023-07-24T00:44:01;19.20;1.00
5802;DHT22;2927;49.366;8.530;2023-07-24T00:46:27;19.20;1.00
5802;DHT22;2927;49.366;8.530;2023-07-24T00:48:58;19.20;1.00
5802;DHT22;2927;49.366;8.530;2023-07-24T00:51:23;19.20;1.00
5802;DHT22;2927;49.366;8.530;2023-07-24T00:53:49;19.20;1.00
5802;DHT22;2927;49.366;8.530;2023-07-24T00:56:15;19.20;1.00
5802;DHT22;2927;49.366;8.530;2023-07-24T00:58:41;19.10;1.00
5802;DHT22;2927;49.366;8.530;2023-07-24T01:01:06;19.10;1.00
5802;DHT22;2927;49.366;8.530;2023-07-24T01:03:34;19.10;1.00
5802;DHT22;2927;49.366;8.530;2023-07-24T01:06:03;19.10;1.00
5802;DHT22;2927;49.366;8.530;2023-07-24T01:08:29;19.00;1.00
5802;DHT22;2927;49.366;8.530;2023-07-24T01:10:57;19.00;1.00
5802;DHT22;2927;49.366;8.530;2023-07-24T01:13:25;19.00;1.00
5802;DHT22;2927;49.366;8.530;2023-07-24T01:16:08;18.90;1.00
5802;DHT22;2927;49.366;8.530;2023-07-24T01:18:34;18.80;1.00
5802;DHT22;2927;49.366;8.530;2023-07-24T01:21:05;18.80;20.80
5802;DHT22;2927;49.366;8.530;2023-07-24T01:24:33;18.80;48.70
5802;DHT22;2927;49.366;8.530;2023-07-24T01:26:50;18.80;99.90
5802;DHT22;2927;49.366;8.530;2023-07-24T01:29:15;18.80;99.90
5802;DHT22;2927;49.366;8.530;2023-07-24T01:31:41;18.70;99.90
5802;DHT22;2927;49.366;8.530;2023-07-24T01:34:06;18.70;99.90
5802;DHT22;2927;49.366;8.530;2023-07-24T01:36:32;18.70;99.90
5802;DHT22;2927;49.366;8.530;2023-07-24T01:38:58;18.70;1.00
5802;DHT22;2927;49.366;8.530;2023-07-24T01:41:24;18.70;1.00
5802;DHT22;2927;49.366;8.530;2023-07-24T01:43:51;18.70;1.00
5802;DHT22;2927;49.366;8.530;2023-07-24T01:46:16;18.70;1.00
5802;DHT22;2927;49.366;8.530;2023-07-24T01:48:42;18.80;1.00
5802;DHT22;2927;49.366;8.530;2023-07-24T01:51:07;18.80;1.00
5802;DHT22;2927;49.366;8.530;2023-07-24T01:53:33;18.90;1.00
5802;DHT22;2927;49.366;8.530;2023-07-24T01:55:58;18.90;1.00
5802;DHT22;2927;49.366;8.530;2023-07-24T01:58:24;18.90;1.00
5802;DHT22;2927;49.366;8.530;2023-07-24T02:00:49;18.90;1.00
5802;DHT22;2927;49.366;8.530;2023-07-24T02:03:15;18.90;1.00
5802;DHT22;2927;49.366;8.530;2023-07-24T02:05:40;18.90;1.00
5802;DHT22;2927;49.366;8.530;2023-07-24T02:08:06;18.90;1.00
5802;DHT22;2927;49.366;8.530;2023-07-24T02:10:31;18.90;35.00
5802;DHT22;2927;49.366;8.530;2023-07-24T02:12:57;18.90;99.90
5802;DHT22;2927;49.366;8.530;2023-07-24T02:15:23;18.90;99.90
5802;DHT22;2927;49.366;8.530;2023-07-24T02:17:48;19.00;99.90
5802;DHT22;2927;49.366;8.530;2023-07-24T02:20:14;19.00;99.90
5802;DHT22;2927;49.366;8.530;2023-07-24T02:22:39;18.90;99.90
5802;DHT22;2927;49.366;8.530;2023-07-24T02:25:05;18.90;99.90
5802;DHT22;2927;49.366;8.530;2023-07-24T02:27:32;19.00;99.90
5802;DHT22;2927;49.366;8.530;2023-07-24T02:29:59;19.00;99.90
5802;DHT22;2927;49.366;8.530;2023-07-24T02:32:25;19.00;99.90
5802;DHT22;2927;49.366;8.530;2023-07-24T02:34:51;19.00;1.00
5802;DHT22;2927;49.366;8.530;2023-07-24T02:37:17;19.10;1.00
5802;DHT22;2927;49.366;8.530;2023-07-24T02:39:43;19.10;99.90
5802;DHT22;2927;49.366;8.530;2023-07-24T02:42:08;19.10;1.00
5802;DHT22;2927;49.366;8.530;2023-07-24T02:44:34;19.10;1.00
5802;DHT22;2927;49.366;8.530;2023-07-24T02:47:00;19.10;99.90
5802;DHT22;2927;49.366;8.530;2023-07-24T02:49:25;19.10;1.00
5802;DHT22;2927;49.366;8.530;2023-07-24T02:51:51;19.10;1.00
5802;DHT22;2927;49.366;8.530;2023-07-24T02:54:16;19.10;1.00
5802;DHT22;2927;49.366;8.530;2023-07-24T02:56:42;19.10;99.90
5802;DHT22;2927;49.366;8.530;2023-07-24T02:59:07;19.10;99.90
5802;DHT22;2927;49.366;8.530;2023-07-24T03:01:33;19.00;99.90
5802;DHT22;2927;49.366;8.530;2023-07-24T03:03:58;19.00;99.90
5802;DHT22;2927;49.366;8.530;2023-07-24T03:06:25;19.00;99.90
5802;DHT22;2927;49.366;8.530;2023-07-24T03:08:51;19.00;99.90
5802;DHT22;2927;49.366;8.530;2023-07-24T03:11:16;19.10;99.90
5802;DHT22;2927;49.366;8.530;2023-07-24T03:13:42;19.00;99.90
5802;DHT22;2927;49.366;8.530;2023-07-24T03:16:08;19.00;99.90
5802;DHT22;2927;49.366;8.530;2023-07-24T03:18:34;19.00;99.90
5802;DHT22;2927;49.366;8.530;2023-07-24T03:20:59;19.00;72.40
5802;DHT22;2927;49.366;8.530;2023-07-24T03:23:25;19.00;88.30
5802;DHT22;2927;49.366;8.530;2023-07-24T03:25:51;19.00;1.00
5802;DHT22;2927;49.366;8.530;2023-07-24T03:28:16;19.00;1.00
5802;DHT22;2927;49.366;8.530;2023-07-24T03:30:42;19.00;1.00
5802;DHT22;2927;49.366;8.530;2023-07-24T03:33:07;19.00;1.00
5802;DHT22;2927;49.366;8.530;2023-07-24T03:35:33;18.90;1.00
5802;DHT22;2927;49.366;8.530;2023-07-24T03:37:59;19.00;1.00
5802;DHT22;2927;49.366;8.530;2023-07-24T03:40:25;19.00;1.00
5802;DHT22;2927;49.366;8.530;2023-07-24T03:42:50;19.00;1.00
5802;DHT22;2927;49.366;8.530;2023-07-24T03:45:16;19.00;1.00
5802;DHT22;2927;49.366;8.530;2023-07-24T03:47:42;18.90;1.00
5802;DHT22;2927;49.366;8.530;2023-07-24T03:50:07;18.90;1.00
5802;DHT22;2927;49.366;8.530;2023-07-24T03:52:33;18.90;1.00
5802;DHT22;2927;49.366;8.530;2023-07-24T03:54:58;18.80;1.00
5802;DHT22;2927;49.366;8.530;2023-07-24T03:57:24;18.80;1.00
5802;DHT22;2927;49.366;8.530;2023-07-24T03:59:50;18.80;1.00
5802;DHT22;2927;49.366;8.530;2023-07-24T04:02:15;18.80;1.00
5802;DHT22;2927;49.366;8.530;2023-07-24T04:04:41;18.80;1.00
5802;DHT22;2927;49.366;8.530;2023-07-24T04:07:06;18.80;1.00
5802;DHT22;2927;49.366;8.530;2023-07-24T04:09:32;18.80;1.00
5802;DHT22;2927;49.366;8.530;2023-07-24T04:11:57;18.90;1.00
5802;DHT22;2927;49.366;8.530;2023-07-24T04:14:23;18.80;1.00
5802;DHT22;2927;49.366;8.530;2023-07-24T04:16:49;18.90;1.00
5802;DHT22;2927;49.366;8.530;2023-07-24T04:19:14;18.90;1.00
5802;DHT22;2927;49.366;8.530;2023-07-24T04:21:40;18.90;1.00
5802;DHT22;2927;49.366;8.530;2023-07-24T04:24:05;19.00;1.00
5802;DHT22;2927;49.366;8.530;2023-07-24T04:26:31;19.00;1.00
5802;DHT22;2927;49.366;8.530;2023-07-24T04:28:56;19.10;1.00
5802;DHT22;2927;49.366;8.530;2023-07-24T04:31:22;19.00;1.00
5802;DHT22;2927;49.366;8.530;2023-07-24T04:33:47;19.10;1.00
5802;DHT22;2927;49.366;8.530;2023-07-24T04:36:13;19.10;1.00
5802;DHT22;2927;49.366;8.530;2023-07-24T04:38:38;19.20;1.00
5802;DHT22;2927;49.366;8.530;2023-07-24T04:41:04;19.20;1.00
5802;DHT22;2927;49.366;8.530;2023-07-24T04:43:30;19.20;1.00
5802;DHT22;2927;49.366;8.530;2023-07-24T04:45:55;19.30;1.00
5802;DHT22;2927;49.366;8.530;2023-07-24T04:48:21;19.30;1.00
5802;DHT22;2927;49.366;8.530;2023-07-24T04:50:46;19.30;1.00
5802;DHT22;2927;49.366;8.530;2023-07-24T04:53:12;19.30;1.00
5802;DHT22;2927;49.366;8.530;2023-07-24T04:55:37;19.40;1.00
5802;DHT22;2927;49.366;8.530;2023-07-24T04:58:03;19.40;1.00
5802;DHT22;2927;49.366;8.530;2023-07-24T05:00:29;19.50;1.00
5802;DHT22;2927;49.366;8.530;2023-07-24T05:02:54;19.50;1.00
5802;DHT22;2927;49.366;8.530;2023-07-24T05:05:20;19.60;1.00
5802;DHT22;2927;49.366;8.530;2023-07-24T05:07:45;19.70;1.00
5802;DHT22;2927;49.366;8.530;2023-07-24T05:10:11;19.70;1.00
5802;DHT22;2927;49.366;8.530;2023-07-24T05:12:41;19.80;1.00
5802;DHT22;2927;49.366;8.530;2023-07-24T05:15:07;19.80;1.00
5802;DHT22;2927;49.366;8.530;2023-07-24T05:17:33;19.80;1.00
5802;DHT22;2927;49.366;8.530;2023-07-24T05:19:58;19.70;1.00
5802;DHT22;2927;49.366;8.530;2023-07-24T05:22:24;19.80;1.00
5802;DHT22;2927;49.366;8.530;2023-07-24T05:24:50;19.80;1.00
5802;DHT22;2927;49.366;8.530;2023-07-24T05:27:16;19.80;1.00
5802;DHT22;2927;49.366;8.530;2023-07-24T05:29:41;19.80;1.00
5802;DHT22;2927;49.366;8.530;2023-07-24T05:32:07;19.90;1.00
5802;DHT22;2927;49.366;8.530;2023-07-24T05:34:32;19.90;1.00
5802;DHT22;2927;49.366;8.530;2023-07-24T05:36:58;19.90;1.00
5802;DHT22;2927;49.366;8.530;2023-07-24T05:39:23;20.00;1.00
5802;DHT22;2927;49.366;8.530;2023-07-24T05:41:49;19.90;1.00
5802;DHT22;2927;49.366;8.530;2023-07-24T05:44:14;19.90;1.00
5802;DHT22;2927;49.366;8.530;2023-07-24T05:46:40;20.00;1.00
5802;DHT22;2927;49.366;8.530;2023-07-24T05:49:05;20.00;1.00
5802;DHT22;2927;49.366;8.530;2023-07-24T05:51:31;20.10;1.00
5802;DHT22;2927;49.366;8.530;2023-07-24T05:53:56;20.00;1.00
5802;DHT22;2927;49.366;8.530;2023-07-24T05:56:22;20.10;1.00
5802;DHT22;2927;49.366;8.530;2023-07-24T05:58:47;20.00;1.00
5802;DHT22;2927;49.366;8.530;2023-07-24T06:01:13;20.00;1.00
5802;DHT22;2927;49.366;8.530;2023-07-24T06:03:39;20.10;1.00
5802;DHT22;2927;49.366;8.530;2023-07-24T06:06:04;20.10;1.00
5802;DHT22;2927;49.366;8.530;2023-07-24T06:08:30;20.10;1.00
5802;DHT22;2927;49.366;8.530;2023-07-24T06:10:55;20.10;1.00
5802;DHT22;2927;49.366;8.530;2023-07-24T06:13:21;20.10;1.00
5802;DHT22;2927;49.366;8.530;2023-07-24T06:15:47;20.10;1.00
5802;DHT22;2927;49.366;8.530;2023-07-24T06:18:14;20.20;1.00
5802;DHT22;2927;49.366;8.530;2023-07-24T06:20:39;20.30;1.00
5802;DHT22;2927;49.366;8.530;2023-07-24T06:23:05;20.30;1.00
5802;DHT22;2927;49.366;8.530;2023-07-24T06:25:31;20.30;1.00
5802;DHT22;2927;49.366;8.530;2023-07-24T06:27:56;20.30;1.00
5802;DHT22;2927;49.366;8.530;2023-07-24T06:30:22;20.40;1.00
5802;DHT22;2927;49.366;8.530;2023-07-24T06:32:48;20.60;1.00
5802;DHT22;2927;49.366;8.530;2023-07-24T06:35:13;20.60;1.00
5802;DHT22;2927;49.366;8.530;2023-07-24T06:37:39;20.60;1.00
5802;DHT22;2927;49.366;8.530;2023-07-24T06:40:06;20.60;1.00
5802;DHT22;2927;49.366;8.530;2023-07-24T06:42:31;20.70;1.00
5802;DHT22;2927;49.366;8.530;2023-07-24T06:44:57;20.80;1.00
5802;DHT22;2927;49.366;8.530;2023-07-24T06:47:22;20.90;1.00
5802;DHT22;2927;49.366;8.530;2023-07-24T06:49:48;20.80;1.00
5802;DHT22;2927;49.366;8.530;2023-07-24T06:52:13;21.00;1.00
5802;DHT22;2927;49.366;8.530;2023-07-24T06:54:39;21.10;1.00
5802;DHT22;2927;49.366;8.530;2023-07-24T06:57:04;21.20;1.00
5802;DHT22;2927;49.366;8.530;2023-07-24T06:59:30;21.30;99.90
5802;DHT22;2927;49.366;8.530;2023-07-24T07:01:56;21.40;99.90
5802;DHT22;2927;49.366;8.530;2023-07-24T07:04:21;21.60;99.90
5802;DHT22;2927;49.366;8.530;2023-07-24T07:06:47;21.80;99.90
5802;DHT22;2927;49.366;8.530;2023-07-24T07:09:12;22.10;99.90
5802;DHT22;2927;49.366;8.530;2023-07-24T07:11:38;22.20;99.90
5802;DHT22;2927;49.366;8.530;2023-07-24T07:14:04;22.10;99.90
5802;DHT22;2927;49.366;8.530;2023-07-24T07:16:29;22.00;99.90
5802;DHT22;2927;49.366;8.530;2023-07-24T07:18:55;22.20;99.90
5802;DHT22;2927;49.366;8.530;2023-07-24T07:21:21;22.50;68.00
5802;DHT22;2927;49.366;8.530;2023-07-24T07:23:46;22.40;33.60
5802;DHT22;2927;49.366;8.530;2023-07-24T07:26:12;22.60;13.90
5802;DHT22;2927;49.366;8.530;2023-07-24T07:28:37;22.90;1.00
5802;DHT22;2927;49.366;8.530;2023-07-24T07:31:03;23.20;1.00
5802;DHT22;2927;49.366;8.530;2023-07-24T07:33:29;23.70;1.00
5802;DHT22;2927;49.366;8.530;2023-07-24T07:35:55;23.80;1.00
5802;DHT22;2927;49.366;8.530;2023-07-24T07:38:20;23.60;1.00
5802;DHT22;2927;49.366;8.530;2023-07-24T07:40:48;23.40;1.00
5802;DHT22;2927;49.366;8.530;2023-07-24T07:43:13;23.30;1.00
5802;DHT22;2927;49.366;8.530;2023-07-24T07:45:39;23.30;1.00
5802;DHT22;2927;49.366;8.530;2023-07-24T07:48:05;23.10;1.00
5802;DHT22;2927;49.366;8.530;2023-07-24T07:50:30;23.00;1.00
5802;DHT22;2927;49.366;8.530;2023-07-24T07:52:56;23.00;1.00
5802;DHT22;2927;49.366;8.530;2023-07-24T07:55:21;23.00;1.00
5802;DHT22;2927;49.366;8.530;2023-07-24T07:57:47;23.20;1.00
5802;DHT22;2927;49.366;8.530;2023-07-24T08:00:13;23.30;1.00
5802;DHT22;2927;49.366;8.530;2023-07-24T08:02:39;23.30;1.00
5802;DHT22;2927;49.366;8.530;2023-07-24T08:05:08;23.40;1.00
5802;DHT22;2927;49.366;8.530;2023-07-24T08:07:34;23.30;1.00
5802;DHT22;2927;49.366;8.530;2023-07-24T08:10:00;23.30;1.00
5802;DHT22;2927;49.366;8.530;2023-07-24T08:12:26;23.30;1.00
5802;DHT22;2927;49.366;8.530;2023-07-24T08:14:51;23.30;1.00
5802;DHT22;2927;49.366;8.530;2023-07-24T08:17:17;23.40;1.00
5802;DHT22;2927;49.366;8.530;2023-07-24T08:19:42;23.40;1.00
5802;DHT22;2927;49.366;8.530;2023-07-24T08:22:08;23.30;1.00
5802;DHT22;2927;49.366;8.530;2023-07-24T08:24:34;23.40;1.00
5802;DHT22;2927;49.366;8.530;2023-07-24T08:27:00;23.40;1.00
5802;DHT22;2927;49.366;8.530;2023-07-24T08:29:26;23.40;1.00
5802;DHT22;2927;49.366;8.530;2023-07-24T08:31:51;23.60;1.00
5802;DHT22;2927;49.366;8.530;2023-07-24T08:34:17;23.80;1.00
5802;DHT22;2927;49.366;8.530;2023-07-24T08:36:42;23.90;1.00
5802;DHT22;2927;49.366;8.530;2023-07-24T08:39:08;24.00;1.00
5802;DHT22;2927;49.366;8.530;2023-07-24T08:41:33;24.10;1.00
5802;DHT22;2927;49.366;8.530;2023-07-24T08:44:00;24.10;1.00
5802;DHT22;2927;49.366;8.530;2023-07-24T08:46:27;24.20;1.00
5802;DHT22;2927;49.366;8.530;2023-07-24T08:48:54;24.10;1.00
5802;DHT22;2927;49.366;8.530;2023-07-24T08:51:20;24.60;99.90
5802;DHT22;2927;49.366;8.530;2023-07-24T08:53:48;25.60;99.90
5802;DHT22;2927;49.366;8.530;2023-07-24T08:56:14;26.20;99.90
5802;DHT22;2927;49.366;8.530;2023-07-24T08:58:40;25.80;99.90
5802;DHT22;2927;49.366;8.530;2023-07-24T09:01:07;25.50;99.90
5802;DHT22;2927;49.366;8.530;2023-07-24T09:03:33;25.30;99.90
5802;DHT22;2927;49.366;8.530;2023-07-24T09:05:59;24.90;99.90
5802;DHT22;2927;49.366;8.530;2023-07-24T09:10:55;24.60;99.90
5802;DHT22;2927;49.366;8.530;2023-07-24T09:13:21;24.60;99.90
5802;DHT22;2927;49.366;8.530;2023-07-24T09:15:46;24.40;99.90
5802;DHT22;2927;49.366;8.530;2023-07-24T09:18:12;24.20;99.90
5802;DHT22;2927;49.366;8.530;2023-07-24T09:20:42;24.00;1.00
5802;DHT22;2927;49.366;8.530;2023-07-24T09:23:09;24.10;1.00
5802;DHT22;2927;49.366;8.530;2023-07-24T09:25:36;24.10;1.00
5802;DHT22;2927;49.366;8.530;2023-07-24T09:28:15;24.30;1.00
5802;DHT22;2927;49.366;8.530;2023-07-24T09:30:41;24.50;99.90
5802;DHT22;2927;49.366;8.530;2023-07-24T09:33:07;24.20;1.00
5802;DHT22;2927;49.366;8.530;2023-07-24T09:35:34;24.10;1.00
5802;DHT22;2927;49.366;8.530;2023-07-24T09:38:18;24.00;1.00
5802;DHT22;2927;49.366;8.530;2023-07-24T09:40:45;23.90;1.00
5802;DHT22;2927;49.366;8.530;2023-07-24T09:43:20;23.90;1.00
5802;DHT22;2927;49.366;8.530;2023-07-24T09:45:47;23.90;1.00
5802;DHT22;2927;49.366;8.530;2023-07-24T09:48:14;23.80;1.00
5802;DHT22;2927;49.366;8.530;2023-07-24T09:50:41;23.90;1.00
5802;DHT22;2927;49.366;8.530;2023-07-24T09:53:22;24.00;1.00
5802;DHT22;2927;49.366;8.530;2023-07-24T09:55:56;23.90;1.00
5802;DHT22;2927;49.366;8.530;2023-07-24T09:58:23;24.00;1.00
5802;DHT22;2927;49.366;8.530;2023-07-24T10:00:49;24.10;1.00
5802;DHT22;2927;49.366;8.530;2023-07-24T10:03:16;23.90;1.00
5802;DHT22;2927;49.366;8.530;2023-07-24T10:05:45;23.80;1.00
5802;DHT22;2927;49.366;8.530;2023-07-24T10:08:11;23.80;1.00
5802;DHT22;2927;49.366;8.530;2023-07-24T10:10:38;23.70;1.00
5802;DHT22;2927;49.366;8.530;2023-07-24T10:13:04;23.70;1.00
5802;DHT22;2927;49.366;8.530;2023-07-24T10:15:31;23.60;1.00
5802;DHT22;2927;49.366;8.530;2023-07-24T10:18:04;23.40;1.00
5802;DHT22;2927;49.366;8.530;2023-07-24T10:20:39;23.40;1.00
5802;DHT22;2927;49.366;8.530;2023-07-24T10:23:10;23.30;29.20
5802;DHT22;2927;49.366;8.530;2023-07-24T10:25:38;23.30;44.80
5802;DHT22;2927;49.366;8.530;2023-07-24T10:28:07;23.30;77.20
5802;DHT22;2927;49.366;8.530;2023-07-24T10:30:39;23.40;39.80
5802;DHT22;2927;49.366;8.530;2023-07-24T10:33:12;23.40;19.30
5802;DHT22;2927;49.366;8.530;2023-07-24T10:35:43;23.40;92.10
5802;DHT22;2927;49.366;8.530;2023-07-24T10:38:10;23.40;99.50
5802;DHT22;2927;49.366;8.530;2023-07-24T10:40:36;23.40;99.90
5802;DHT22;2927;49.366;8.530;2023-07-24T10:43:13;23.40;99.90
5802;DHT22;2927;49.366;8.530;2023-07-24T10:48:08;23.50;99.90
5802;DHT22;2927;49.366;8.530;2023-07-24T10:50:44;23.60;99.90
5802;DHT22;2927;49.366;8.530;2023-07-24T10:53:16;23.70;99.90
5802;DHT22;2927;49.366;8.530;2023-07-24T10:55:43;23.70;99.90
5802;DHT22;2927;49.366;8.530;2023-07-24T10:58:10;23.70;99.90
5802;DHT22;2927;49.366;8.530;2023-07-24T11:00:36;23.80;99.90
5802;DHT22;2927;49.366;8.530;2023-07-24T11:03:02;23.90;70.50
5802;DHT22;2927;49.366;8.530;2023-07-24T11:05:28;24.10;70.00
5802;DHT22;2927;49.366;8.530;2023-07-24T11:07:54;24.20;97.70
5802;DHT22;2927;49.366;8.530;2023-07-24T11:10:21;24.30;99.90
5802;DHT22;2927;49.366;8.530;2023-07-24T11:12:48;24.30;99.90
5802;DHT22;2927;49.366;8.530;2023-07-24T11:15:14;24.40;99.90
5802;DHT22;2927;49.366;8.530;2023-07-24T11:17:41;24.70;1.00
5802;DHT22;2927;49.366;8.530;2023-07-24T11:20:13;24.80;1.00
5802;DHT22;2927;49.366;8.530;2023-07-24T11:22:43;25.00;1.00
5802;DHT22;2927;49.366;8.530;2023-07-24T11:25:12;25.10;1.00
5802;DHT22;2927;49.366;8.530;2023-07-24T11:27:42;25.00;1.00
5802;DHT22;2927;49.366;8.530;2023-07-24T11:30:10;24.90;1.00
5802;DHT22;2927;49.366;8.530;2023-07-24T11:32:40;24.90;1.00
5802;DHT22;2927;49.366;8.530;2023-07-24T11:35:07;24.80;1.00
5802;DHT22;2927;49.366;8.530;2023-07-24T11:37:34;25.00;1.00
5802;DHT22;2927;49.366;8.530;2023-07-24T11:40:02;24.90;1.00
5802;DHT22;2927;49.366;8.530;2023-07-24T11:42:44;24.80;1.00
5802;DHT22;2927;49.366;8.530;2023-07-24T11:45:10;25.00;1.00
5802;DHT22;2927;49.366;8.530;2023-07-24T11:50:11;25.20;1.00
5802;DHT22;2927;49.366;8.530;2023-07-24T11:52:42;25.20;1.00
5802;DHT22;2927;49.366;8.530;2023-07-24T11:55:12;25.20;1.00
5802;DHT22;2927;49.366;8.530;2023-07-24T11:57:38;25.20;1.00
5802;DHT22;2927;49.366;8.530;2023-07-24T12:00:05;25.20;1.00
5802;DHT22;2927;49.366;8.530;2023-07-24T12:02:32;25.10;1.00
5802;DHT22;2927;49.366;8.530;2023-07-24T12:05:01;25.00;1.00
5802;DHT22;2927;49.366;8.530;2023-07-24T12:07:34;24.80;1.00
5802;DHT22;2927;49.366;8.530;2023-07-24T12:10:04;24.80;1.00
5802;DHT22;2927;49.366;8.530;2023-07-24T12:12:41;25.00;1.00
5802;DHT22;2927;49.366;8.530;2023-07-24T12:15:08;25.50;1.00
5802;DHT22;2927;49.366;8.530;2023-07-24T12:17:34;25.80;1.00
5802;DHT22;2927;49.366;8.530;2023-07-24T12:19:59;25.70;99.90
5802;DHT22;2927;49.366;8.530;2023-07-24T12:22:25;25.40;1.00
5802;DHT22;2927;49.366;8.530;2023-07-24T12:24:50;24.90;1.00
5802;DHT22;2927;49.366;8.530;2023-07-24T12:27:16;24.50;1.00
5802;DHT22;2927;49.366;8.530;2023-07-24T12:29:42;24.20;1.00
5802;DHT22;2927;49.366;8.530;2023-07-24T12:32:07;24.10;99.90
5802;DHT22;2927;49.366;8.530;2023-07-24T12:34:33;24.10;1.00
5802;DHT22;2927;49.366;8.530;2023-07-24T12:36:58;24.20;99.90
5802;DHT22;2927;49.366;8.530;2023-07-24T12:39:24;24.20;1.00
5802;DHT22;2927;49.366;8.530;2023-07-24T12:41:50;24.20;99.90
5802;DHT22;2927;49.366;8.530;2023-07-24T12:44:15;24.30;1.00
5802;DHT22;2927;49.366;8.530;2023-07-24T12:46:41;24.80;99.90
5802;DHT22;2927;49.366;8.530;2023-07-24T12:49:06;25.10;1.00
5802;DHT22;2927;49.366;8.530;2023-07-24T12:51:32;25.70;1.00
5802;DHT22;2927;49.366;8.530;2023-07-24T12:53:58;25.90;1.00
5802;DHT22;2927;49.366;8.530;2023-07-24T12:56:23;26.10;1.00
5802;DHT22;2927;49.366;8.530;2023-07-24T12:58:49;26.00;99.90
5802;DHT22;2927;49.366;8.530;2023-07-24T13:01:14;26.10;99.90
5802;DHT22;2927;49.366;8.530;2023-07-24T13:03:40;26.10;99.90
5802;DHT22;2927;49.366;8.530;2023-07-24T13:06:06;26.10;99.90
5802;DHT22;2927;49.366;8.530;2023-07-24T13:08:31;26.00;99.90
5802;DHT22;2927;49.366;8.530;2023-07-24T13:10:57;26.00;99.90
5802;DHT22;2927;49.366;8.530;2023-07-24T13:13:22;26.00;99.90
5802;DHT22;2927;49.366;8.530;2023-07-24T13:15:48;26.40;99.90
5802;DHT22;2927;49.366;8.530;2023-07-24T13:18:16;26.80;99.90
5802;DHT22;2927;49.366;8.530;2023-07-24T13:20:42;26.90;99.90
5802;DHT22;2927;49.366;8.530;2023-07-24T13:23:07;27.20;99.90
5802;DHT22;2927;49.366;8.530;2023-07-24T13:25:33;27.10;99.90
5802;DHT22;2927;49.366;8.530;2023-07-24T13:27:59;27.00;99.90
5802;DHT22;2927;49.366;8.530;2023-07-24T13:30:24;26.70;99.90
5802;DHT22;2927;49.366;8.530;2023-07-24T13:32:51;26.50;99.90
5802;DHT22;2927;49.366;8.530;2023-07-24T13:35:16;26.40;99.90
5802;DHT22;2927;49.366;8.530;2023-07-24T13:37:42;26.50;99.90
5802;DHT22;2927;49.366;8.530;2023-07-24T13:40:08;27.00;99.90
5802;DHT22;2927;49.366;8.530;2023-07-24T13:42:34;27.50;92.50
5802;DHT22;2927;49.366;8.530;2023-07-24T13:44:59;27.90;1.00
5802;DHT22;2927;49.366;8.530;2023-07-24T13:47:25;28.00;1.00
5802;DHT22;2927;49.366;8.530;2023-07-24T13:49:51;27.70;1.00
5802;DHT22;2927;49.366;8.530;2023-07-24T13:52:17;27.30;1.00
5802;DHT22;2927;49.366;8.530;2023-07-24T13:54:42;27.40;1.00
5802;DHT22;2927;49.366;8.530;2023-07-24T13:57:08;27.30;1.00
5802;DHT22;2927;49.366;8.530;2023-07-24T13:59:37;27.20;1.00
5802;DHT22;2927;49.366;8.530;2023-07-24T14:02:06;26.80;1.00
5802;DHT22;2927;49.366;8.530;2023-07-24T14:04:31;26.40;1.00
5802;DHT22;2927;49.366;8.530;2023-07-24T14:06:57;26.60;4.70
5802;DHT22;2927;49.366;8.530;2023-07-24T14:09:23;26.40;1.00
5802;DHT22;2927;49.366;8.530;2023-07-24T14:11:48;26.10;1.00
5802;DHT22;2927;49.366;8.530;2023-07-24T14:14:17;26.00;3.20
5802;DHT22;2927;49.366;8.530;2023-07-24T14:16:42;25.90;1.00
5802;DHT22;2927;49.366;8.530;2023-07-24T14:19:08;25.80;13.80
5802;DHT22;2927;49.366;8.530;2023-07-24T14:21:33;25.60;23.60
5802;DHT22;2927;49.366;8.530;2023-07-24T14:23:59;25.40;55.70
5802;DHT22;2927;49.366;8.530;2023-07-24T14:26:24;25.40;1.00
5802;DHT22;2927;49.366;8.530;2023-07-24T14:28:50;24.70;99.90
5802;DHT22;2927;49.366;8.530;2023-07-24T14:31:15;23.60;1.00
5802;DHT22;2927;49.366;8.530;2023-07-24T14:33:41;22.80;1.00
5802;DHT22;2927;49.366;8.530;2023-07-24T14:36:06;22.40;1.00
5802;DHT22;2927;49.366;8.530;2023-07-24T14:38:32;22.20;1.00
5802;DHT22;2927;49.366;8.530;2023-07-24T14:40:58;21.70;99.90
5802;DHT22;2927;49.366;8.530;2023-07-24T14:43:23;21.20;99.90
5802;DHT22;2927;49.366;8.530;2023-07-24T14:45:48;20.90;99.90
5802;DHT22;2927;49.366;8.530;2023-07-24T14:48:14;20.70;99.90
5802;DHT22;2927;49.366;8.530;2023-07-24T14:50:42;20.70;99.90
5802;DHT22;2927;49.366;8.530;2023-07-24T14:53:07;20.70;99.90
5802;DHT22;2927;49.366;8.530;2023-07-24T14:55:33;20.70;99.90
5802;DHT22;2927;49.366;8.530;2023-07-24T14:57:58;20.60;99.90
5802;DHT22;2927;49.366;8.530;2023-07-24T15:00:24;20.80;99.90
5802;DHT22;2927;49.366;8.530;2023-07-24T15:02:49;21.10;99.90
5802;DHT22;2927;49.366;8.530;2023-07-24T15:05:15;21.30;99.90
5802;DHT22;2927;49.366;8.530;2023-07-24T15:07:40;21.60;99.90
5802;DHT22;2927;49.366;8.530;2023-07-24T15:10:06;21.80;99.90
5802;DHT22;2927;49.366;8.530;2023-07-24T15:12:32;21.80;99.90
5802;DHT22;2927;49.366;8.530;2023-07-24T15:14:58;21.50;99.90
5802;DHT22;2927;49.366;8.530;2023-07-24T15:17:23;21.60;99.90
5802;DHT22;2927;49.366;8.530;2023-07-24T15:19:49;21.90;99.90
5802;DHT22;2927;49.366;8.530;2023-07-24T15:22:14;22.10;99.90
5802;DHT22;2927;49.366;8.530;2023-07-24T15:24:40;22.00;99.90
5802;DHT22;2927;49.366;8.530;2023-07-24T15:27:07;22.20;99.90
5802;DHT22;2927;49.366;8.530;2023-07-24T15:29:37;22.50;99.90
5802;DHT22;2927;49.366;8.530;2023-07-24T15:32:04;22.70;99.90
5802;DHT22;2927;49.366;8.530;2023-07-24T15:34:30;22.90;99.90
5802;DHT22;2927;49.366;8.530;2023-07-24T15:36:56;23.00;99.90
5802;DHT22;2927;49.366;8.530;2023-07-24T15:39:21;23.10;99.90
5802;DHT22;2927;49.366;8.530;2023-07-24T15:41:47;23.20;99.90
5802;DHT22;2927;49.366;8.530;2023-07-24T15:44:12;23.30;99.90
5802;DHT22;2927;49.366;8.530;2023-07-24T15:46:38;23.40;99.90
5802;DHT22;2927;49.366;8.530;2023-07-24T15:49:03;23.60;99.90
5802;DHT22;2927;49.366;8.530;2023-07-24T15:51:29;23.50;99.90
5802;DHT22;2927;49.366;8.530;2023-07-24T15:53:57;23.40;99.90
5802;DHT22;2927;49.366;8.530;2023-07-24T15:56:22;23.30;99.90
5802;DHT22;2927;49.366;8.530;2023-07-24T15:58:50;23.20;99.90
5802;DHT22;2927;49.366;8.530;2023-07-24T16:01:15;22.90;99.90
5802;DHT22;2927;49.366;8.530;2023-07-24T16:03:41;22.80;99.90
5802;DHT22;2927;49.366;8.530;2023-07-24T16:06:08;22.80;99.90
5802;DHT22;2927;49.366;8.530;2023-07-24T16:08:35;22.90;99.90
5802;DHT22;2927;49.366;8.530;2023-07-24T16:11:01;22.90;99.90
5802;DHT22;2927;49.366;8.530;2023-07-24T16:13:27;22.90;99.90